Time;durP1;ratioP1;P1;durP2;ratioP2;P2;SDS_P1;SDS_P2;PMS_P1;PMS_P2;Temp;Humidity;BMP_temperature;BMP_pressure;BME280_temperature;BME280_humidity;BME280_pressure;Samples;Min_cycle;Max_cycle;Signal;HPM_P1;HPM_P2
2022/11/20 00:01:05;;;;;;;24.10;15.25;;;;;;;;;;4793022;29;20047;-70
2022/11/20 00:03:33;;;;;;;33.78;19.20;;;;;;;;;;4800277;29;20053;-70
2022/11/20 00:06:02;;;;;;;30.70;18.30;;;;;;;;;;4810368;29;20138;-70
2022/11/20 00:08:30;;;;;;;28.63;16.75;;;;;;;;;;4803828;29;20707;-70
2022/11/20 00:10:57;;;;;;;27.80;16.88;;;;;;;;;;4800600;29;20053;-70
2022/11/20 00:13:24;;;;;;;31.98;18.15;;;;;;;;;;4807404;29;20567;-70
2022/11/20 00:15:57;;;;;;;24.50;16.17;;;;;;;;;;4789226;29;20047;-70
2022/11/20 00:18:25;;;;;;;34.95;17.92;;;;;;;;;;4807425;29;20067;-70
2022/11/20 00:20:52;;;;;;;31.95;18.08;;;;;;;;;;4806720;29;20042;-69
2022/11/20 00:23:19;;;;;;;33.25;17.75;;;;;;;;;;4835256;29;20098;-70
2022/11/20 00:25:47;;;;;;;25.60;16.08;;;;;;;;;;4816900;29;20046;-70
2022/11/20 00:28:14;;;;;;;26.52;17.17;;;;;;;;;;4809450;29;20059;-69
2022/11/20 00:30:42;;;;;;;28.27;16.42;;;;;;;;;;4818951;29;20051;-70
2022/11/20 00:33:09;;;;;;;25.88;16.95;;;;;;;;;;4815908;29;20396;-70
2022/11/20 00:35:36;;;;;;;33.75;18.88;;;;;;;;;;4799999;29;20489;-70
2022/11/20 00:38:04;;;;;;;24.58;15.70;;;;;;;;;;4812506;29;20042;-70
2022/11/20 00:40:31;;;;;;;25.17;15.88;;;;;;;;;;4816354;29;20050;-70
2022/11/20 00:42:58;;;;;;;36.78;17.50;;;;;;;;;;4796777;29;20043;-70
2022/11/20 00:45:26;;;;;;;27.55;16.13;;;;;;;;;;4817187;29;20187;-70
2022/11/20 00:47:53;;;;;;;35.97;18.80;;;;;;;;;;4820098;29;20420;-70
2022/11/20 00:50:21;;;;;;;34.38;17.73;;;;;;;;;;4800051;29;20066;-70
2022/11/20 00:52:48;;;;;;;28.42;16.30;;;;;;;;;;4807256;29;20419;-70
2022/11/20 00:55:15;;;;;;;27.85;17.10;;;;;;;;;;4785835;29;20472;-70
2022/11/20 00:57:43;;;;;;;34.10;18.45;;;;;;;;;;4803861;29;20479;-70
2022/11/20 01:00:10;;;;;;;35.15;18.13;;;;;;;;;;4785954;29;20303;-70
2022/11/20 01:02:37;;;;;;;25.75;16.08;;;;;;;;;;4817272;29;20415;-70
2022/11/20 01:05:05;;;;;;;32.55;17.60;;;;;;;;;;4802871;29;20058;-70
2022/11/20 01:07:32;;;;;;;35.50;17.38;;;;;;;;;;4803902;29;20590;-70
2022/11/20 01:10:00;;;;;;;26.80;15.95;;;;;;;;;;4808172;29;20177;-70
2022/11/20 01:12:27;;;;;;;24.90;15.90;;;;;;;;;;4802401;29;20062;-70
2022/11/20 01:14:54;;;;;;;29.75;17.17;;;;;;;;;;4815963;29;20096;-70
2022/11/20 01:17:21;;;;;;;28.13;16.48;;;;;;;;;;4799404;29;20039;-71
2022/11/20 01:19:50;;;;;;;33.90;18.60;;;;;;;;;;4802576;29;20408;-70
2022/11/20 01:22:17;;;;;;;27.95;15.55;;;;;;;;;;4794596;29;20038;-70
2022/11/20 01:24:45;;;;;;;25.58;15.90;;;;;;;;;;4812815;29;20066;-70
2022/11/20 01:27:12;;;;;;;32.70;17.55;;;;;;;;;;4806757;29;20380;-70
2022/11/20 01:29:39;;;;;;;33.88;18.23;;;;;;;;;;4803248;29;20046;-70
2022/11/20 01:32:07;;;;;;;32.22;17.25;;;;;;;;;;4799992;29;20058;-70
2022/11/20 01:34:34;;;;;;;25.20;16.00;;;;;;;;;;4801403;29;20111;-70
2022/11/20 01:37:01;;;;;;;26.90;16.65;;;;;;;;;;4785827;29;20055;-70
2022/11/20 01:39:29;;;;;;;27.60;16.42;;;;;;;;;;4807642;29;20492;-70
2022/11/20 01:44:42;;;;;;;30.08;17.27;;;;;;;;;;4804822;29;20077;-70
2022/11/20 01:47:10;;;;;;;24.63;16.55;;;;;;;;;;4787823;29;20050;-71
2022/11/20 01:49:47;;;;;;;31.60;16.20;;;;;;;;;;4800429;29;20298;-70
2022/11/20 01:52:20;;;;;;;22.45;15.90;;;;;;;;;;4798982;29;20051;-70
2022/11/20 01:54:56;;;;;;;26.75;16.27;;;;;;;;;;4811196;29;20154;-70
2022/11/20 01:57:25;;;;;;;25.25;16.25;;;;;;;;;;4791292;29;20038;-70
2022/11/20 01:59:55;;;;;;;32.58;17.08;;;;;;;;;;4804038;29;20050;-70
2022/11/20 02:02:22;;;;;;;30.10;17.38;;;;;;;;;;4812311;29;20520;-70
2022/11/20 02:04:52;;;;;;;29.95;16.70;;;;;;;;;;4801213;29;20460;-70
2022/11/20 02:07:19;;;;;;;28.95;16.40;;;;;;;;;;4808125;29;20046;-70
2022/11/20 02:09:46;;;;;;;34.22;16.80;;;;;;;;;;4810706;29;20138;-70
2022/11/20 02:15:01;;;;;;;25.27;16.27;;;;;;;;;;4797370;29;20121;-70
2022/11/20 02:17:29;;;;;;;30.20;16.75;;;;;;;;;;4809573;29;20503;-70
2022/11/20 02:19:56;;;;;;;28.35;16.48;;;;;;;;;;4802536;29;20501;-70
2022/11/20 02:22:31;;;;;;;35.17;17.73;;;;;;;;;;4808504;29;20043;-70
2022/11/20 02:25:01;;;;;;;28.73;16.00;;;;;;;;;;4808515;29;20607;-70
2022/11/20 02:27:29;;;;;;;34.47;16.30;;;;;;;;;;4805268;29;20046;-70
2022/11/20 02:30:10;;;;;;;26.02;16.02;;;;;;;;;;4805376;29;20431;-70
2022/11/20 02:32:38;;;;;;;27.20;16.88;;;;;;;;;;4798376;29;20090;-70
2022/11/20 02:35:18;;;;;;;29.55;16.42;;;;;;;;;;4811873;29;20076;-70
2022/11/20 02:37:48;;;;;;;30.23;15.82;;;;;;;;;;4805550;29;20050;-70
2022/11/20 02:40:15;;;;;;;25.33;15.45;;;;;;;;;;4808628;29;20531;-70
2022/11/20 02:42:43;;;;;;;24.48;16.27;;;;;;;;;;4810623;29;20047;-70
2022/11/20 02:45:10;;;;;;;28.13;16.25;;;;;;;;;;4816947;29;20037;-70
2022/11/20 02:47:38;;;;;;;30.00;16.35;;;;;;;;;;4796815;29;20055;-70
2022/11/20 02:50:05;;;;;;;36.40;16.80;;;;;;;;;;4799338;29;20516;-70
2022/11/20 02:52:33;;;;;;;28.20;14.32;;;;;;;;;;4810143;29;20123;-70
2022/11/20 02:55:00;;;;;;;20.40;14.00;;;;;;;;;;4799460;29;20046;-70
2022/11/20 02:57:27;;;;;;;21.00;15.40;;;;;;;;;;4803924;29;20051;-70
2022/11/20 02:59:55;;;;;;;30.00;15.02;;;;;;;;;;4806478;29;20057;-70
2022/11/20 03:02:22;;;;;;;19.80;13.80;;;;;;;;;;4790942;29;20050;-70
2022/11/20 03:04:50;;;;;;;25.17;14.68;;;;;;;;;;4808065;29;20051;-70
2022/11/20 03:07:17;;;;;;;30.13;15.75;;;;;;;;;;4818769;29;20337;-70
2022/11/20 03:09:44;;;;;;;37.15;16.13;;;;;;;;;;4806169;29;20118;-70
2022/11/20 03:12:11;;;;;;;30.13;15.80;;;;;;;;;;4823663;29;20054;-69
2022/11/20 03:14:39;;;;;;;28.63;15.82;;;;;;;;;;4823569;29;20052;-70
2022/11/20 03:17:06;;;;;;;21.55;14.80;;;;;;;;;;4809353;29;20309;-70
2022/11/20 03:19:36;;;;;;;27.63;15.60;;;;;;;;;;4833388;24;20100;-81
2022/11/20 03:22:04;;;;;;;29.67;15.20;;;;;;;;;;4790437;29;20138;-81
2022/11/20 03:24:31;;;;;;;20.50;12.75;;;;;;;;;;4822402;29;20056;-81
2022/11/20 03:27:01;;;;;;;30.02;15.38;;;;;;;;;;4790364;29;20057;-81
2022/11/20 03:29:32;;;;;;;30.92;15.55;;;;;;;;;;4810979;29;20137;-82
2022/11/20 03:31:59;;;;;;;23.27;13.80;;;;;;;;;;4796739;29;20107;-81
2022/11/20 03:34:29;;;;;;;20.83;12.93;;;;;;;;;;4779649;29;20480;-81
2022/11/20 03:36:56;;;;;;;19.23;11.73;;;;;;;;;;4768773;29;20050;-80
2022/11/20 03:39:24;;;;;;;20.98;12.02;;;;;;;;;;4765007;29;20141;-81
2022/11/20 03:41:52;;;;;;;16.08;11.88;;;;;;;;;;4785670;29;20425;-82
2022/11/20 03:44:21;;;;;;;21.25;13.23;;;;;;;;;;4779699;29;20046;-81
2022/11/20 03:46:51;;;;;;;24.77;12.98;;;;;;;;;;4760406;29;20058;-80
2022/11/20 03:49:19;;;;;;;15.77;10.77;;;;;;;;;;4766450;29;20485;-79
2022/11/20 03:51:47;;;;;;;20.65;12.45;;;;;;;;;;4809141;29;20058;-80
2022/11/20 03:54:18;;;;;;;20.48;12.55;;;;;;;;;;4817720;29;20054;-80
2022/11/20 03:56:45;;;;;;;24.75;12.55;;;;;;;;;;4785039;29;20043;-80
2022/11/20 03:59:13;;;;;;;19.75;11.98;;;;;;;;;;4781064;29;20058;-82
2022/11/20 04:01:40;;;;;;;18.27;12.23;;;;;;;;;;4815984;29;20085;-81
2022/11/20 04:04:13;;;;;;;19.75;11.95;;;;;;;;;;4787623;29;20067;-80
2022/11/20 04:06:43;;;;;;;18.83;11.90;;;;;;;;;;4775290;29;20069;-81
2022/11/20 04:09:11;;;;;;;27.25;12.95;;;;;;;;;;4771178;29;20725;-80
2022/11/20 04:11:40;;;;;;;13.07;10.60;;;;;;;;;;4769913;29;20130;-81
2022/11/20 04:14:13;;;;;;;24.95;12.23;;;;;;;;;;4758306;29;20058;-81
2022/11/20 04:16:44;;;;;;;14.85;10.77;;;;;;;;;;4782371;29;20047;-81
2022/11/20 04:19:13;;;;;;;16.80;11.55;;;;;;;;;;4783838;29;20042;-82
2022/11/20 04:21:41;;;;;;;18.48;11.65;;;;;;;;;;4815934;29;20465;-81
2022/11/20 04:24:10;;;;;;;19.98;13.30;;;;;;;;;;4803338;29;20035;-81
2022/11/20 04:26:38;;;;;;;21.73;13.02;;;;;;;;;;4813570;29;20042;-81
2022/11/20 04:29:10;;;;;;;18.35;12.00;;;;;;;;;;4787585;29;20509;-80
2022/11/20 04:31:38;;;;;;;27.00;13.85;;;;;;;;;;4790652;29;20046;-81
2022/11/20 04:34:07;;;;;;;17.13;11.80;;;;;;;;;;4770795;30;20069;-82
2022/11/20 04:36:35;;;;;;;20.88;13.20;;;;;;;;;;4793037;29;20059;-81
2022/11/20 04:39:04;;;;;;;21.08;13.18;;;;;;;;;;4777635;29;20558;-82
2022/11/20 04:41:40;;;;;;;21.63;12.68;;;;;;;;;;4808136;29;20081;-81
2022/11/20 04:44:08;;;;;;;21.75;12.48;;;;;;;;;;4787767;29;20046;-82
2022/11/20 04:46:39;;;;;;;26.63;14.35;;;;;;;;;;4769899;29;20062;-81
2022/11/20 04:49:09;;;;;;;;;;;;;;;;;;4770790;29;20061;-81
2022/11/20 04:51:37;;;;;;;19.75;10.98;;;;;;;;;;4781970;29;19928;-81
2022/11/20 04:54:07;;;;;;;24.70;12.65;;;;;;;;;;4805589;29;20047;-81
2022/11/20 04:56:37;;;;;;;21.60;13.10;;;;;;;;;;4782485;29;20054;-81
2022/11/20 04:59:08;;;;;;;26.85;13.93;;;;;;;;;;4787819;29;20458;-81
2022/11/20 05:01:36;;;;;;;21.70;13.65;;;;;;;;;;4775082;29;20089;-81
2022/11/20 05:04:06;;;;;;;22.85;12.60;;;;;;;;;;4783336;29;20084;-81
2022/11/20 05:06:42;;;;;;;23.83;14.32;;;;;;;;;;4782458;29;20402;-81
2022/11/20 05:09:14;;;;;;;22.63;13.43;;;;;;;;;;4776510;29;20054;-81
2022/11/20 05:11:43;;;;;;;22.27;13.65;;;;;;;;;;4823184;29;20130;-81
2022/11/20 05:14:25;;;;;;;27.02;14.27;;;;;;;;;;4775490;29;20043;-80
2022/11/20 05:16:58;;;;;;;25.35;13.32;;;;;;;;;;4759994;29;20058;-81
2022/11/20 05:19:36;;;;;;;22.05;12.82;;;;;;;;;;4798853;29;20121;-81
2022/11/20 05:22:07;;;;;;;23.90;13.90;;;;;;;;;;4800709;29;20069;-79
2022/11/20 05:24:34;;;;;;;22.65;14.13;;;;;;;;;;4813014;29;20051;-80
2022/11/20 05:27:03;;;;;;;25.23;14.45;;;;;;;;;;4819599;29;20035;-80
2022/11/20 05:29:33;;;;;;;30.83;16.23;;;;;;;;;;4814138;29;20055;-81
2022/11/20 05:32:00;;;;;;;31.08;15.05;;;;;;;;;;4815372;29;20067;-81
2022/11/20 05:34:27;;;;;;;27.40;15.05;;;;;;;;;;4775916;29;20047;-81
2022/11/20 05:36:54;;;;;;;28.45;15.65;;;;;;;;;;4805270;29;20141;-81
2022/11/20 05:39:22;;;;;;;25.40;14.88;;;;;;;;;;4788885;29;20059;-81
2022/11/20 05:42:29;;;;;;;25.60;14.13;;;;;;;;;;4772348;29;20042;-81
2022/11/20 05:44:38;;;;;;;24.83;13.27;;;;;;;;;;4790976;29;20428;-80
2022/11/20 05:47:06;;;;;;;29.90;15.25;;;;;;;;;;4789070;29;20050;-81
2022/11/20 05:49:33;;;;;;;25.38;14.80;;;;;;;;;;4804692;29;20043;-81
2022/11/20 05:52:06;;;;;;;25.88;14.30;;;;;;;;;;4776181;29;20114;-81
2022/11/20 05:54:33;;;;;;;20.65;14.15;;;;;;;;;;4812069;29;20059;-81
2022/11/20 05:57:01;;;;;;;31.95;17.08;;;;;;;;;;4796273;29;20054;-82
2022/11/20 05:59:28;;;;;;;30.83;15.88;;;;;;;;;;4796320;29;20119;-80
2022/11/20 06:01:56;;;;;;;34.53;15.35;;;;;;;;;;4774114;29;20055;-81
2022/11/20 06:04:28;;;;;;;27.75;14.88;;;;;;;;;;4782736;29;20043;-81
2022/11/20 06:06:58;;;;;;;28.38;15.30;;;;;;;;;;4797169;29;20050;-81
2022/11/20 06:09:28;;;;;;;33.22;16.75;;;;;;;;;;4782750;29;20062;-81
2022/11/20 06:11:55;;;;;;;27.27;14.57;;;;;;;;;;4790547;29;20572;-81
2022/11/20 06:14:26;;;;;;;32.22;16.27;;;;;;;;;;4780034;29;20454;-81
2022/11/20 06:16:53;;;;;;;32.97;15.80;;;;;;;;;;4777711;29;20130;-81
2022/11/20 06:19:21;;;;;;;27.50;15.52;;;;;;;;;;4806926;29;20107;-81
2022/11/20 06:21:49;;;;;;;28.98;15.63;;;;;;;;;;4795641;29;20105;-80
2022/11/20 06:24:17;;;;;;;25.40;14.50;;;;;;;;;;4810891;29;20099;-81
2022/11/20 06:26:46;;;;;;;24.77;15.32;;;;;;;;;;4785837;29;20063;-81
2022/11/20 06:29:13;;;;;;;21.90;13.93;;;;;;;;;;4813682;29;20055;-81
2022/11/20 06:31:42;;;;;;;25.20;14.18;;;;;;;;;;4788431;29;20047;-81
2022/11/20 06:34:09;;;;;;;32.47;16.35;;;;;;;;;;4793461;29;20510;-81
2022/11/20 06:36:40;;;;;;;27.85;14.65;;;;;;;;;;4802087;29;20058;-81
2022/11/20 06:39:10;;;;;;;23.33;14.55;;;;;;;;;;4785435;29;20437;-81
2022/11/20 06:41:39;;;;;;;30.42;15.38;;;;;;;;;;4796049;29;20382;-81
2022/11/20 06:44:06;;;;;;;29.45;17.20;;;;;;;;;;4770690;29;20043;-81
2022/11/20 06:46:34;;;;;;;29.25;17.20;;;;;;;;;;4788553;29;20142;-81
2022/11/20 06:49:04;;;;;;;28.17;15.15;;;;;;;;;;4776548;29;20051;-80
2022/11/20 06:51:33;;;;;;;29.50;16.63;;;;;;;;;;4763949;29;20617;-80
2022/11/20 06:54:00;;;;;;;30.70;16.88;;;;;;;;;;4783839;29;20051;-81
2022/11/20 06:56:28;;;;;;;26.75;15.32;;;;;;;;;;4793657;29;20046;-81
2022/11/20 06:58:55;;;;;;;30.60;17.08;;;;;;;;;;4788984;29;20528;-81
2022/11/20 07:01:23;;;;;;;37.95;16.60;;;;;;;;;;4791303;29;20049;-80
2022/11/20 07:03:51;;;;;;;24.17;15.50;;;;;;;;;;4796580;29;20047;-80
2022/11/20 07:06:20;;;;;;;24.38;14.68;;;;;;;;;;4805882;29;20042;-81
2022/11/20 07:08:48;;;;;;;31.30;17.70;;;;;;;;;;4798282;29;20394;-82
2022/11/20 07:11:15;;;;;;;29.67;17.25;;;;;;;;;;4794091;29;20061;-80
2022/11/20 07:13:42;;;;;;;29.17;16.17;;;;;;;;;;4773319;29;20081;-81
2022/11/20 07:16:14;;;;;;;23.75;15.05;;;;;;;;;;4757742;29;20054;-80
2022/11/20 07:18:41;;;;;;;25.35;15.57;;;;;;;;;;4788863;29;20506;-81
2022/11/20 07:21:19;;;;;;;26.35;15.05;;;;;;;;;;4773931;29;20058;-80
2022/11/20 07:23:46;;;;;;;21.52;13.52;;;;;;;;;;4813372;29;20133;-81
2022/11/20 07:26:21;;;;;;;28.60;16.10;;;;;;;;;;4774408;29;20062;-80
2022/11/20 07:28:57;;;;;;;19.08;13.10;;;;;;;;;;4768373;29;20054;-81
2022/11/20 07:31:24;;;;;;;17.55;13.38;;;;;;;;;;4790954;29;20077;-82
2022/11/20 07:33:52;;;;;;;21.55;14.23;;;;;;;;;;4772629;29;20046;-81
2022/11/20 07:36:19;;;;;;;28.33;16.77;;;;;;;;;;4787580;29;20047;-81
2022/11/20 07:38:52;;;;;;;30.85;17.02;;;;;;;;;;4789227;29;20504;-82
2022/11/20 07:41:20;;;;;;;62.13;44.15;;;;;;;;;;4792250;29;20047;-81
2022/11/20 07:43:47;;;;;;;27.90;17.15;;;;;;;;;;4803645;29;20053;-81
2022/11/20 07:46:14;;;;;;;67.65;42.80;;;;;;;;;;4794092;29;20058;-81
2022/11/20 07:48:42;;;;;;;32.30;21.60;;;;;;;;;;4786948;29;20131;-80
2022/11/20 07:51:13;;;;;;;33.83;21.17;;;;;;;;;;4778437;29;20509;-80
2022/11/20 07:53:43;;;;;;;23.55;15.57;;;;;;;;;;4782841;29;20490;-80
2022/11/20 07:56:11;;;;;;;17.73;13.00;;;;;;;;;;4769774;29;20050;-79
2022/11/20 07:58:38;;;;;;;20.83;13.85;;;;;;;;;;4791362;29;20050;-80
2022/11/20 08:01:06;;;;;;;21.65;12.95;;;;;;;;;;4793368;29;20047;-80
2022/11/20 08:03:34;;;;;;;13.65;11.10;;;;;;;;;;4754664;29;20493;-81
2022/11/20 08:06:04;;;;;;;16.95;11.93;;;;;;;;;;4791088;29;20517;-81
2022/11/20 08:08:31;;;;;;;15.43;11.85;;;;;;;;;;4791960;29;20082;-80
2022/11/20 08:16:33;;;;;;;24.88;13.13;;;;;;;;;;4783021;29;20055;-79
2022/11/20 08:19:00;;;;;;;18.42;12.95;;;;;;;;;;4795074;29;20089;-81
2022/11/20 08:21:28;;;;;;;15.27;12.23;;;;;;;;;;4764309;29;20129;-82
2022/11/20 08:24:04;;;;;;;18.88;13.30;;;;;;;;;;4760103;29;20053;-81
2022/11/20 08:26:32;;;;;;;16.50;13.48;;;;;;;;;;4792462;29;20438;-80
2022/11/20 08:29:21;;;;;;;15.00;11.60;;;;;;;;;;4792690;29;20126;-81
2022/11/20 08:31:49;;;;;;;17.98;12.70;;;;;;;;;;4798619;29;20054;-81
2022/11/20 08:34:21;;;;;;;10.77;9.65;;;;;;;;;;4791787;29;20053;-82
2022/11/20 08:36:49;;;;;;;14.43;12.98;;;;;;;;;;4776904;29;20046;-81
2022/11/20 08:39:19;;;;;;;15.30;11.63;;;;;;;;;;4761216;29;20039;-80
2022/11/20 08:41:48;;;;;;;16.60;12.85;;;;;;;;;;4788380;29;20451;-81
2022/11/20 08:44:16;;;;;;;18.98;14.38;;;;;;;;;;4758561;29;20540;-81
2022/11/20 08:46:45;;;;;;;16.80;13.50;;;;;;;;;;4767528;29;20058;-80
2022/11/20 08:49:13;;;;;;;19.83;15.88;;;;;;;;;;4784307;29;20043;-80
2022/11/20 08:51:41;;;;;;;19.77;16.48;;;;;;;;;;4802879;29;20131;-79
2022/11/20 08:54:09;;;;;;;23.98;17.90;;;;;;;;;;4778801;29;20103;-80
2022/11/20 08:56:37;;;;;;;19.58;17.45;;;;;;;;;;4801734;29;20058;-80
2022/11/20 08:59:05;;;;;;;26.48;23.70;;;;;;;;;;4798899;29;20057;-81
2022/11/20 09:01:52;;;;;;;24.52;17.95;;;;;;;;;;4796483;29;20049;-81
2022/11/20 09:04:19;;;;;;;18.27;16.10;;;;;;;;;;4775200;29;20130;-81
2022/11/20 09:06:50;;;;;;;20.30;17.60;;;;;;;;;;4790714;29;20046;-81
2022/11/20 09:09:19;;;;;;;21.15;18.90;;;;;;;;;;4789713;29;20062;-80
2022/11/20 09:11:47;;;;;;;32.30;23.85;;;;;;;;;;4801900;29;20054;-81
2022/11/20 09:14:15;;;;;;;23.77;17.23;;;;;;;;;;4797138;29;20055;-81
2022/11/20 09:16:42;;;;;;;16.58;13.77;;;;;;;;;;4785819;29;20216;-81
2022/11/20 09:19:09;;;;;;;24.35;20.73;;;;;;;;;;4825354;24;20152;-69
2022/11/20 09:21:56;;;;;;;25.70;17.58;;;;;;;;;;4792053;29;20122;-69
2022/11/20 09:24:27;;;;;;;22.85;16.27;;;;;;;;;;4803950;29;20137;-68
2022/11/20 09:26:54;;;;;;;16.90;14.40;;;;;;;;;;4810719;29;20051;-68
2022/11/20 09:29:23;;;;;;;18.73;16.08;;;;;;;;;;4768208;29;20050;-68
2022/11/20 09:31:51;;;;;;;20.05;14.73;;;;;;;;;;4793483;29;20069;-69
2022/11/20 09:34:18;;;;;;;16.15;13.40;;;;;;;;;;4783229;29;20504;-69
2022/11/20 09:36:46;;;;;;;17.70;14.77;;;;;;;;;;4793310;29;20082;-68
2022/11/20 09:39:13;;;;;;;18.55;14.48;;;;;;;;;;4790881;29;20051;-69
2022/11/20 09:41:51;;;;;;;22.55;17.35;;;;;;;;;;4789951;29;20123;-69
2022/11/20 09:44:39;;;;;;;21.00;15.52;;;;;;;;;;4797181;29;20412;-67
2022/11/20 09:47:10;;;;;;;17.95;14.10;;;;;;;;;;4810337;29;20042;-69
2022/11/20 09:49:53;;;;;;;15.25;13.75;;;;;;;;;;4804073;29;20054;-69
2022/11/20 09:52:27;;;;;;;16.48;13.82;;;;;;;;;;4793511;29;20051;-68
2022/11/20 09:54:55;;;;;;;17.73;14.98;;;;;;;;;;4791901;29;20051;-68
2022/11/20 09:57:24;;;;;;;17.20;14.80;;;;;;;;;;4812823;29;20415;-69
2022/11/20 09:59:57;;;;;;;19.33;15.63;;;;;;;;;;4797501;29;20477;-68
2022/11/20 10:02:24;;;;;;;18.15;15.90;;;;;;;;;;4799510;29;20069;-68
2022/11/20 10:05:01;;;;;;;17.85;16.02;;;;;;;;;;4802110;29;20051;-69
2022/11/20 10:07:32;;;;;;;18.65;15.93;;;;;;;;;;4818972;29;20046;-70
2022/11/20 10:10:00;;;;;;;18.65;16.65;;;;;;;;;;4795482;29;20424;-70
2022/11/20 10:12:46;;;;;;;18.55;16.60;;;;;;;;;;4797202;29;20058;-70
2022/11/20 10:15:17;;;;;;;21.00;18.33;;;;;;;;;;4781247;29;20158;-70
2022/11/20 10:18:03;;;;;;;22.20;19.92;;;;;;;;;;4779427;29;20051;-70
2022/11/20 10:20:49;;;;;;;18.55;16.70;;;;;;;;;;4804465;29;20043;-70
2022/11/20 10:23:35;;;;;;;19.55;17.60;;;;;;;;;;4806793;29;20473;-69
2022/11/20 10:26:05;;;;;;;18.88;16.27;;;;;;;;;;4789703;29;20460;-70
2022/11/20 10:28:44;;;;;;;20.17;18.05;;;;;;;;;;4790327;29;20423;-70
2022/11/20 10:31:33;;;;;;;19.38;17.45;;;;;;;;;;4794979;29;20055;-69
2022/11/20 10:34:06;;;;;;;24.55;19.70;;;;;;;;;;4788106;29;20071;-71
2022/11/20 10:36:44;;;;;;;20.73;18.38;;;;;;;;;;4768562;29;20051;-70
2022/11/20 10:39:12;;;;;;;24.60;22.00;;;;;;;;;;4782707;29;20130;-70
2022/11/20 10:41:41;;;;;;;20.70;18.58;;;;;;;;;;4808974;29;20064;-70
2022/11/20 10:45:00;;;;;;;22.58;20.25;;;;;;;;;;4804639;29;20046;-70
2022/11/20 10:47:05;;;;;;;20.30;18.25;;;;;;;;;;4823473;29;20049;-70
2022/11/20 10:49:34;;;;;;;23.02;20.00;;;;;;;;;;4816957;29;20046;-70
2022/11/20 10:52:01;;;;;;;25.17;21.58;;;;;;;;;;4819125;29;20126;-70
2022/11/20 10:54:37;;;;;;;23.15;19.95;;;;;;;;;;4823844;29;20054;-70
2022/11/20 10:57:18;;;;;;;22.92;20.55;;;;;;;;;;4818264;29;20053;-72
2022/11/20 11:00:04;;;;;;;22.42;20.10;;;;;;;;;;4795980;29;20027;-70
2022/11/20 11:02:33;;;;;;;18.90;16.92;;;;;;;;;;4815256;29;20046;-69
2022/11/20 11:05:05;;;;;;;21.85;19.60;;;;;;;;;;4813503;29;20133;-72
2022/11/20 11:07:40;;;;;;;22.17;20.02;;;;;;;;;;4810623;29;20099;-70
2022/11/20 11:10:15;;;;;;;20.40;18.38;;;;;;;;;;4797211;29;20058;-70
2022/11/20 11:12:44;;;;;;;19.65;17.88;;;;;;;;;;4795544;29;20602;-73
2022/11/20 11:15:15;;;;;;;21.90;19.77;;;;;;;;;;4780023;29;20055;-70
2022/11/20 11:17:47;;;;;;;19.83;17.77;;;;;;;;;;4815421;29;20092;-71
2022/11/20 11:20:16;;;;;;;20.15;18.38;;;;;;;;;;4795907;29;20051;-70
2022/11/20 11:22:45;;;;;;;20.15;18.13;;;;;;;;;;4796035;29;20055;-72
2022/11/20 11:25:19;;;;;;;18.83;16.88;;;;;;;;;;4802004;29;20035;-71
2022/11/20 11:27:48;;;;;;;17.88;16.08;;;;;;;;;;4812401;29;20051;-70
2022/11/20 11:30:16;;;;;;;19.92;18.08;;;;;;;;;;4780150;29;20434;-70
2022/11/20 11:32:46;;;;;;;18.92;17.10;;;;;;;;;;4794417;29;20055;-70
2022/11/20 11:35:27;;;;;;;20.50;18.60;;;;;;;;;;4794149;29;20099;-70
2022/11/20 11:38:02;;;;;;;18.52;16.95;;;;;;;;;;4811904;29;20043;-69
2022/11/20 11:40:31;;;;;;;18.67;17.10;;;;;;;;;;4799044;29;20053;-70
2022/11/20 11:43:01;;;;;;;21.88;19.85;;;;;;;;;;4780428;29;20163;-70
2022/11/20 11:45:29;;;;;;;19.83;18.25;;;;;;;;;;4793848;29;20366;-70
2022/11/20 11:47:58;;;;;;;19.98;18.38;;;;;;;;;;4791915;29;20055;-71
2022/11/20 11:50:26;;;;;;;17.60;16.25;;;;;;;;;;4796867;29;20488;-71
2022/11/20 11:53:06;;;;;;;14.38;13.25;;;;;;;;;;4788351;29;20047;-71
2022/11/20 11:55:39;;;;;;;15.90;14.77;;;;;;;;;;4790358;29;20055;-71
2022/11/20 11:58:12;;;;;;;16.40;15.25;;;;;;;;;;4777875;29;20042;-71
2022/11/20 12:00:41;;;;;;;15.85;14.65;;;;;;;;;;4791067;29;20401;-71
2022/11/20 12:03:44;;;;;;;15.43;14.32;;;;;;;;;;4789627;29;20549;-70
2022/11/20 12:06:15;;;;;;;11.27;10.55;;;;;;;;;;4742652;30;20426;-70
2022/11/20 12:08:42;;;;;;;15.73;14.77;;;;;;;;;;4777640;29;20057;-71
2022/11/20 12:11:30;;;;;;;14.75;13.80;;;;;;;;;;4786020;29;20084;-70
2022/11/20 12:14:23;;;;;;;12.93;12.02;;;;;;;;;;4773846;29;20070;-71
2022/11/20 12:16:52;;;;;;;12.63;11.63;;;;;;;;;;4775473;29;20047;-73
2022/11/20 12:19:20;;;;;;;13.55;12.73;;;;;;;;;;4793539;29;20046;-72
2022/11/20 12:22:03;;;;;;;14.68;13.68;;;;;;;;;;4787835;29;20043;-70
2022/11/20 12:24:37;;;;;;;14.13;13.27;;;;;;;;;;4783851;29;20762;-72
2022/11/20 12:27:23;;;;;;;17.40;16.27;;;;;;;;;;4785940;29;20078;-71
2022/11/20 12:30:10;;;;;;;15.18;13.93;;;;;;;;;;4787563;29;20660;-72
2022/11/20 12:32:41;;;;;;;8.18;7.63;;;;;;;;;;4788185;29;20300;-70
2022/11/20 12:35:28;;;;;;;21.70;20.40;;;;;;;;;;4774979;29;20046;-71
2022/11/20 12:38:12;;;;;;;11.18;10.48;;;;;;;;;;4763239;29;20051;-71
2022/11/20 12:40:45;;;;;;;12.10;11.30;;;;;;;;;;4785501;29;20062;-71
2022/11/20 12:46:34;;;;;;;8.73;8.23;;;;;;;;;;4787626;29;20411;-71
2022/11/20 12:49:07;;;;;;;11.02;10.40;;;;;;;;;;4771485;29;20054;-71
2022/11/20 12:51:39;;;;;;;10.60;10.00;;;;;;;;;;4789638;29;20069;-70
2022/11/20 12:54:13;;;;;;;11.07;10.25;;;;;;;;;;4790514;29;20071;-70
2022/11/20 12:56:40;;;;;;;11.18;10.48;;;;;;;;;;4786037;29;20085;-71
2022/11/20 12:59:24;;;;;;;11.55;10.85;;;;;;;;;;4790659;29;20043;-71
2022/11/20 13:01:56;;;;;;;11.60;10.90;;;;;;;;;;4784927;29;20039;-70
2022/11/20 13:04:29;;;;;;;12.18;11.48;;;;;;;;;;4778950;29;20166;-70
2022/11/20 13:06:58;;;;;;;12.63;11.75;;;;;;;;;;4787569;29;20047;-70
2022/11/20 13:09:26;;;;;;;15.57;14.57;;;;;;;;;;4778851;29;20363;-70
2022/11/20 13:11:53;;;;;;;10.02;9.40;;;;;;;;;;4776838;29;20416;-71
2022/11/20 13:14:32;;;;;;;14.45;13.60;;;;;;;;;;4791948;29;20580;-71
2022/11/20 13:17:00;;;;;;;11.77;11.07;;;;;;;;;;4774145;30;20122;-71
2022/11/20 13:19:32;;;;;;;11.93;11.27;;;;;;;;;;4791105;29;20408;-70
2022/11/20 13:22:00;;;;;;;12.95;12.18;;;;;;;;;;4770232;29;20050;-69
2022/11/20 13:24:29;;;;;;;14.07;13.25;;;;;;;;;;4798285;29;20594;-69
2022/11/20 13:27:05;;;;;;;13.40;12.57;;;;;;;;;;4788681;29;20062;-71
2022/11/20 13:29:34;;;;;;;11.80;11.10;;;;;;;;;;4787555;29;20071;-70
2022/11/20 13:32:13;;;;;;;10.70;9.98;;;;;;;;;;4791484;29;20860;-71
2022/11/20 13:34:51;;;;;;;12.90;12.07;;;;;;;;;;4789603;29;20504;-69
2022/11/20 13:37:31;;;;;;;12.30;11.38;;;;;;;;;;4792650;29;20046;-69
2022/11/20 13:40:08;;;;;;;12.45;11.73;;;;;;;;;;4776719;29;20066;-69
2022/11/20 13:42:36;;;;;;;12.75;11.95;;;;;;;;;;4796437;29;20047;-70
2022/11/20 13:45:09;;;;;;;11.43;10.73;;;;;;;;;;4789611;29;20090;-69
2022/11/20 13:47:36;;;;;;;12.48;11.60;;;;;;;;;;4797776;29;20169;-69
2022/11/20 13:50:04;;;;;;;11.63;10.75;;;;;;;;;;4797474;29;20073;-69
2022/11/20 13:52:51;;;;;;;15.40;14.25;;;;;;;;;;4780399;29;20135;-69
2022/11/20 13:55:29;;;;;;;13.45;12.48;;;;;;;;;;4787542;29;20277;-69
2022/11/20 13:57:59;;;;;;;12.88;12.00;;;;;;;;;;4786371;29;20462;-70
2022/11/20 14:00:27;;;;;;;12.80;12.00;;;;;;;;;;4782716;29;20154;-70
2022/11/20 14:03:06;;;;;;;15.10;13.82;;;;;;;;;;4794245;29;20574;-69
2022/11/20 14:05:39;;;;;;;11.50;10.75;;;;;;;;;;4783771;29;20046;-69
2022/11/20 14:08:07;;;;;;;12.27;11.45;;;;;;;;;;4789871;29;20050;-70
2022/11/20 14:10:35;;;;;;;15.38;14.18;;;;;;;;;;4771089;29;20069;-70
2022/11/20 14:13:16;;;;;;;16.02;14.88;;;;;;;;;;4783465;29;20141;-70
2022/11/20 14:15:43;;;;;;;14.30;13.20;;;;;;;;;;4764452;29;20051;-69
2022/11/20 14:18:19;;;;;;;14.98;13.68;;;;;;;;;;4790898;29;20046;-70
2022/11/20 14:20:47;;;;;;;13.90;12.70;;;;;;;;;;4782236;29;20074;-70
2022/11/20 14:23:23;;;;;;;16.98;15.57;;;;;;;;;;4781720;29;20734;-71
2022/11/20 14:25:57;;;;;;;12.52;11.55;;;;;;;;;;4784110;29;20514;-71
2022/11/20 14:28:29;;;;;;;12.80;11.90;;;;;;;;;;4791507;29;20312;-73
2022/11/20 14:30:59;;;;;;;13.57;12.50;;;;;;;;;;4794940;29;20562;-71
2022/11/20 14:33:27;;;;;;;10.27;9.57;;;;;;;;;;4789068;29;20053;-69
2022/11/20 14:35:55;;;;;;;16.20;15.15;;;;;;;;;;4788599;29;20057;-70
2022/11/20 14:38:25;;;;;;;13.35;12.45;;;;;;;;;;4789812;29;20072;-70
2022/11/20 14:40:52;;;;;;;13.80;12.80;;;;;;;;;;4807450;29;20050;-71
2022/11/20 14:43:24;;;;;;;13.50;12.65;;;;;;;;;;4774626;29;20067;-70
2022/11/20 14:46:08;;;;;;;26.83;25.15;;;;;;;;;;4790785;29;20523;-71
2022/11/20 14:48:38;;;;;;;10.35;9.80;;;;;;;;;;4769443;29;20067;-71
2022/11/20 14:51:06;;;;;;;13.52;12.43;;;;;;;;;;4791261;29;20064;-70
2022/11/20 14:53:33;;;;;;;13.10;12.32;;;;;;;;;;4779947;29;20062;-70